createdAt,value
2023-01-15T00:03:21.208Z,1.97
2023-01-15T00:08:24.737Z,2.17
2023-01-15T00:13:29.248Z,2.02
2023-01-15T00:18:32.803Z,1.88
2023-01-15T00:23:55.377Z,1.66
2023-01-15T00:28:58.864Z,1.58
2023-01-15T00:34:03.251Z,1.46
2023-01-15T00:39:06.451Z,1.60
2023-01-15T00:44:09.712Z,1.57
2023-01-15T00:49:14.203Z,1.43
2023-01-15T00:54:18.106Z,1.29
2023-01-15T00:59:21.826Z,1.37
2023-01-15T01:04:24.978Z,1.30
2023-01-15T01:09:28.128Z,1.29
2023-01-15T01:14:32.416Z,1.19
2023-01-15T01:19:37.031Z,1.23
2023-01-15T01:24:40.113Z,1.20
2023-01-15T01:29:44.051Z,1.21
2023-01-15T01:34:47.192Z,1.20
2023-01-15T01:39:50.342Z,1.15
2023-01-15T01:44:53.362Z,1.19
2023-01-15T01:50:02.637Z,1.14
2023-01-15T01:55:07.432Z,0.92
2023-01-15T02:00:11.916Z,0.97
2023-01-15T02:05:31.574Z,1.04
2023-01-15T02:10:35.088Z,0.98
2023-01-15T02:15:46.396Z,0.92
2023-01-15T02:21:02.313Z,0.96
2023-01-15T02:26:12.981Z,0.98
2023-01-15T02:31:30.646Z,0.99
2023-01-15T02:36:44.995Z,0.98
2023-01-15T02:42:01.373Z,0.75
2023-01-15T02:47:11.843Z,0.79
2023-01-15T02:52:24.983Z,0.86
2023-01-15T02:57:33.721Z,0.98
2023-01-15T03:02:44.515Z,0.98
2023-01-15T03:07:52.635Z,0.81
2023-01-15T03:13:02.697Z,0.82
2023-01-15T03:18:23.308Z,0.54
2023-01-15T03:23:27.729Z,0.46
2023-01-15T03:28:36.385Z,0.67
2023-01-15T03:33:42.408Z,0.46
2023-01-15T03:38:52.413Z,0.47
2023-01-15T03:44:38.633Z,0.60
2023-01-15T03:49:46.485Z,0.58
2023-01-15T03:55:13.107Z,0.64
2023-01-15T04:00:27.982Z,0.55
2023-01-15T04:05:37.953Z,0.63
2023-01-15T04:10:59.543Z,0.51
2023-01-15T04:16:07.795Z,0.37
2023-01-15T04:21:12.228Z,0.46
2023-01-15T04:26:16.176Z,0.41
2023-01-15T04:31:20.107Z,0.29
2023-01-15T04:36:23.218Z,0.37
2023-01-15T04:41:44.735Z,0.36
2023-01-15T04:46:48.897Z,0.45
2023-01-15T04:51:52.814Z,0.51
2023-01-15T04:56:56.156Z,0.47
2023-01-15T05:02:06.251Z,0.54
2023-01-15T05:07:10.836Z,0.45
2023-01-15T05:12:13.898Z,0.44
2023-01-15T05:17:19.460Z,0.56
2023-01-15T05:22:22.545Z,0.55
2023-01-15T05:27:25.544Z,0.46
2023-01-15T05:32:30.762Z,0.38
2023-01-15T05:37:34.098Z,0.41
2023-01-15T05:42:37.636Z,0.27
2023-01-15T05:47:41.152Z,0.13
2023-01-15T05:52:44.835Z,0.04
2023-01-15T05:57:48.575Z,0.24
2023-01-15T06:02:52.600Z,0.23
2023-01-15T06:07:55.722Z,0.20
2023-01-15T06:12:58.938Z,0.29
2023-01-15T06:18:02.544Z,0.35
2023-01-15T06:23:05.975Z,0.45
2023-01-15T06:28:11.373Z,0.58
2023-01-15T06:33:14.952Z,0.75
2023-01-15T06:38:18.279Z,0.99
2023-01-15T06:43:42.684Z,1.19
2023-01-15T06:48:47.753Z,1.47
2023-01-15T06:53:51.650Z,1.82
2023-01-15T06:58:57.043Z,1.85
2023-01-15T07:04:00.187Z,2.25
2023-01-15T07:09:04.422Z,2.65
2023-01-15T07:14:07.980Z,3.20
2023-01-15T07:19:11.545Z,4.40
2023-01-15T07:24:15.371Z,10.73
2023-01-15T07:29:19.090Z,13.42
2023-01-15T07:34:23.169Z,15.13
2023-01-15T07:39:26.242Z,16.32
2023-01-15T07:44:48.461Z,17.20
2023-01-15T07:49:55.883Z,16.44
2023-01-15T07:54:59.784Z,16.57
2023-01-15T08:00:03.391Z,18.09
2023-01-15T08:05:15.389Z,18.78
2023-01-15T08:10:20.121Z,18.26
2023-01-15T08:15:23.750Z,19.15
2023-01-15T08:20:27.646Z,18.48
2023-01-15T08:25:31.310Z,18.55
2023-01-15T08:30:34.469Z,18.72
2023-01-15T08:35:37.863Z,18.63
2023-01-15T08:40:59.342Z,18.06
2023-01-15T08:46:05.887Z,18.10
2023-01-15T08:51:12.272Z,17.71
2023-01-15T08:56:18.113Z,17.64
2023-01-15T09:01:21.540Z,17.01
2023-01-15T09:06:25.857Z,16.04
2023-01-15T09:11:29.053Z,17.53
2023-01-15T09:16:33.145Z,17.06
2023-01-15T09:21:36.897Z,17.13
2023-01-15T09:26:41.140Z,17.33
2023-01-15T09:31:45.119Z,17.08
2023-01-15T09:36:48.489Z,16.73
2023-01-15T09:42:16.377Z,15.92
2023-01-15T09:47:31.266Z,17.13
2023-01-15T09:52:50.083Z,16.83
2023-01-15T09:57:58.870Z,16.49
2023-01-15T10:03:16.475Z,16.94
2023-01-15T10:08:22.758Z,16.30
2023-01-15T10:13:49.751Z,16.99
2023-01-15T10:18:54.502Z,16.72
2023-01-15T10:24:06.300Z,17.40
2023-01-15T10:29:22.934Z,16.80
2023-01-15T10:34:44.555Z,16.87
2023-01-15T10:40:07.829Z,16.11
2023-01-15T10:45:35.036Z,15.88
2023-01-15T10:50:39.438Z,15.43
2023-01-15T10:55:51.646Z,14.53
2023-01-15T11:01:03.661Z,14.16
2023-01-15T11:06:13.906Z,13.89
2023-01-15T11:11:53.917Z,13.74
2023-01-15T11:17:09.447Z,13.75
2023-01-15T11:22:20.814Z,13.74
2023-01-15T11:27:31.199Z,13.10
2023-01-15T11:32:37.476Z,13.00
2023-01-15T11:37:40.901Z,13.54
2023-01-15T11:43:06.864Z,13.91
2023-01-15T11:48:40.813Z,14.03
2023-01-15T11:53:51.428Z,14.48
2023-01-15T11:59:01.554Z,14.44
2023-01-15T12:04:33.219Z,13.86
2023-01-15T12:09:51.337Z,13.48
2023-01-15T12:15:20.407Z,13.72
2023-01-15T12:20:42.236Z,14.15
2023-01-15T12:26:05.361Z,14.94
2023-01-15T12:31:17.324Z,14.41
2023-01-15T12:36:30.424Z,14.45
2023-01-15T12:41:59.871Z,14.14
2023-01-15T12:47:10.216Z,13.93
2023-01-15T12:52:21.124Z,13.14
2023-01-15T12:57:45.390Z,12.72
2023-01-15T13:03:10.541Z,13.19
2023-01-15T13:08:32.823Z,14.69
2023-01-15T13:13:40.076Z,15.15
2023-01-15T13:18:47.698Z,15.31
2023-01-15T13:24:02.964Z,15.63
2023-01-15T13:29:21.152Z,15.36
2023-01-15T13:34:35.039Z,16.42
2023-01-15T13:39:43.883Z,16.45
2023-01-15T13:44:51.491Z,16.22
2023-01-15T13:50:02.333Z,14.85
2023-01-15T13:55:36.974Z,13.93
2023-01-15T14:00:41.057Z,13.38
2023-01-15T14:05:55.621Z,12.96
2023-01-15T14:11:02.337Z,14.02
2023-01-15T14:16:25.083Z,13.92
2023-01-15T14:22:00.149Z,13.40
2023-01-15T14:27:12.419Z,14.22
2023-01-15T14:32:45.192Z,14.92
2023-01-15T14:37:57.978Z,14.93
2023-01-15T14:43:11.417Z,14.50
2023-01-15T14:48:30.365Z,13.96
2023-01-15T14:53:43.835Z,12.91
2023-01-15T14:59:04.481Z,12.61
2023-01-15T15:04:38.188Z,12.02
2023-01-15T15:09:48.719Z,11.56
2023-01-15T15:15:06.417Z,11.63
2023-01-15T15:20:37.576Z,11.21
2023-01-15T15:25:49.314Z,11.15
2023-01-15T15:31:02.791Z,10.56
2023-01-15T15:36:11.291Z,10.19
2023-01-15T15:41:17.515Z,9.55
2023-01-15T15:46:51.816Z,9.16
2023-01-15T15:51:58.799Z,8.95
2023-01-15T15:57:20.203Z,8.63
2023-01-15T16:02:42.882Z,8.32
2023-01-15T16:07:50.853Z,8.03
2023-01-15T16:13:01.621Z,7.41
2023-01-15T16:18:25.445Z,7.11
2023-01-15T16:23:34.168Z,6.90
2023-01-15T16:28:51.545Z,6.68
2023-01-15T16:34:01.383Z,6.63
2023-01-15T16:39:20.282Z,6.51
2023-01-15T16:44:35.008Z,6.41
2023-01-15T16:49:42.598Z,6.26
2023-01-15T16:54:49.485Z,6.18
2023-01-15T17:00:03.933Z,6.12
2023-01-15T17:05:25.723Z,5.97
2023-01-15T17:10:35.034Z,5.98
2023-01-15T17:15:45.253Z,5.56
2023-01-15T17:20:55.497Z,5.72
2023-01-15T17:26:07.056Z,5.81
2023-01-15T17:31:32.756Z,5.92
2023-01-15T17:36:42.770Z,6.21
2023-01-15T17:41:54.542Z,6.58
2023-01-15T17:47:04.052Z,6.61
2023-01-15T17:52:22.434Z,6.37
2023-01-15T17:57:49.420Z,6.52
2023-01-15T18:03:16.111Z,6.50
2023-01-15T18:08:25.176Z,6.70
2023-01-15T18:13:35.076Z,6.56
2023-01-15T18:18:43.919Z,6.12
2023-01-15T18:23:52.401Z,6.02
2023-01-15T18:29:01.992Z,6.08
2023-01-15T18:34:19.099Z,6.26
2023-01-15T18:39:28.449Z,6.59
2023-01-15T18:44:55.822Z,6.39
2023-01-15T18:50:05.518Z,6.94
2023-01-15T18:55:14.255Z,7.00
2023-01-15T19:00:24.622Z,6.70
2023-01-15T19:05:33.460Z,6.54
2023-01-15T19:10:43.709Z,6.33
2023-01-15T19:16:10.222Z,6.02
2023-01-15T19:21:19.935Z,5.61
2023-01-15T19:26:27.384Z,5.41
2023-01-15T19:31:38.634Z,5.23
2023-01-15T19:36:47.542Z,5.57
2023-01-15T19:42:14.727Z,6.11
2023-01-15T19:47:58.049Z,5.60
2023-01-15T19:53:09.707Z,5.14
2023-01-15T19:58:20.811Z,4.73
2023-01-15T20:03:32.223Z,4.33
2023-01-15T20:08:42.837Z,4.24
2023-01-15T20:13:55.966Z,4.20
2023-01-15T20:19:07.596Z,4.07
2023-01-15T20:24:19.590Z,4.02
2023-01-15T20:29:32.139Z,3.96
2023-01-15T20:34:43.409Z,3.65
2023-01-15T20:39:55.284Z,3.89
2023-01-15T20:45:14.119Z,4.29
2023-01-15T20:50:24.920Z,4.72
2023-01-15T20:55:53.815Z,4.32
2023-01-15T21:01:11.924Z,4.24
2023-01-15T21:06:24.135Z,4.12
2023-01-15T21:11:35.637Z,3.88
2023-01-15T21:16:48.283Z,4.21
2023-01-15T21:21:59.838Z,5.26
2023-01-15T21:27:11.813Z,5.69
2023-01-15T21:32:23.055Z,5.71
2023-01-15T21:37:33.437Z,5.68
2023-01-15T21:43:01.209Z,5.29
2023-01-15T21:48:10.246Z,4.98
2023-01-15T21:53:18.928Z,4.61
2023-01-15T21:58:27.652Z,4.72
2023-01-15T22:03:37.808Z,4.77
2023-01-15T22:08:47.160Z,4.58
2023-01-15T22:13:54.993Z,5.03
2023-01-15T22:19:01.676Z,5.05
2023-01-15T22:24:08.623Z,4.84
2023-01-15T22:29:14.735Z,4.70
2023-01-15T22:34:24.394Z,4.52
2023-01-15T22:39:30.668Z,4.64
2023-01-15T22:44:36.628Z,4.64
2023-01-15T22:49:40.092Z,4.38
2023-01-15T22:54:45.436Z,3.96
2023-01-15T22:59:50.807Z,3.91
2023-01-15T23:04:54.452Z,4.06
2023-01-15T23:09:57.517Z,3.69
2023-01-15T23:15:00.555Z,3.27
2023-01-15T23:20:04.563Z,3.23
2023-01-15T23:25:09.379Z,3.26
2023-01-15T23:30:12.930Z,2.97
2023-01-15T23:35:16.567Z,2.63
2023-01-15T23:40:19.623Z,3.32
2023-01-15T23:45:42.814Z,3.21
2023-01-15T23:50:46.140Z,2.64
2023-01-15T23:55:49.686Z,2.36
